createdAt,value
2023-02-13T00:02:50.616Z,0
2023-02-13T00:07:50.596Z,0
2023-02-13T00:12:50.633Z,0
2023-02-13T00:17:50.595Z,0
2023-02-13T00:22:50.570Z,0
2023-02-13T00:27:50.588Z,0
2023-02-13T00:32:50.631Z,0
2023-02-13T00:37:50.563Z,0
2023-02-13T00:42:50.595Z,0
2023-02-13T00:47:50.571Z,0
2023-02-13T00:52:50.590Z,0
2023-02-13T00:57:50.576Z,0
2023-02-13T01:02:50.575Z,0
2023-02-13T01:07:50.534Z,0
2023-02-13T01:12:50.594Z,0
2023-02-13T01:17:50.545Z,0
2023-02-13T01:22:50.560Z,0
2023-02-13T01:27:50.524Z,0
2023-02-13T01:32:50.627Z,0
2023-02-13T01:37:50.540Z,0
2023-02-13T01:42:50.550Z,0
2023-02-13T01:47:50.524Z,0
2023-02-13T01:52:50.564Z,0
2023-02-13T01:57:50.527Z,0
2023-02-13T02:02:50.536Z,0
2023-02-13T02:07:50.498Z,0
2023-02-13T02:12:50.553Z,0
2023-02-13T02:17:50.522Z,0
2023-02-13T02:22:50.540Z,0
2023-02-13T02:27:50.514Z,0
2023-02-13T02:32:50.588Z,0
2023-02-13T02:37:50.531Z,0
2023-02-13T02:42:50.538Z,0
2023-02-13T02:47:50.509Z,0
2023-02-13T02:52:50.542Z,0
2023-02-13T02:57:50.524Z,0
2023-02-13T03:02:50.492Z,0
2023-02-13T03:07:50.484Z,0
2023-02-13T03:12:50.531Z,0
2023-02-13T03:17:50.516Z,0
2023-02-13T03:22:50.500Z,0
2023-02-13T03:27:50.462Z,0
2023-02-13T03:32:50.520Z,0
2023-02-13T03:37:50.469Z,0
2023-02-13T03:42:50.502Z,0
2023-02-13T03:47:50.469Z,0
2023-02-13T03:52:50.481Z,0
2023-02-13T03:57:50.446Z,0
2023-02-13T04:02:50.441Z,0
2023-02-13T04:07:50.456Z,0
2023-02-13T04:12:50.478Z,0
2023-02-13T04:17:50.445Z,0
2023-02-13T04:22:50.485Z,0
2023-02-13T04:27:50.444Z,0
2023-02-13T04:32:50.464Z,0
2023-02-13T04:37:50.442Z,0
2023-02-13T04:42:50.445Z,0
2023-02-13T04:47:50.438Z,0
2023-02-13T04:52:50.474Z,0
2023-02-13T04:57:50.470Z,0
2023-02-13T05:02:50.444Z,0
2023-02-13T05:07:50.458Z,0
2023-02-13T05:12:50.473Z,0
2023-02-13T05:17:50.436Z,0
2023-02-13T05:22:50.428Z,0
2023-02-13T05:27:50.422Z,0
2023-02-13T05:32:50.456Z,0
2023-02-13T05:37:50.451Z,0
2023-02-13T05:42:50.393Z,0
2023-02-13T05:47:50.388Z,0
2023-02-13T05:52:50.431Z,0
2023-02-13T05:57:50.427Z,0
2023-02-13T06:02:50.501Z,0
2023-02-13T06:07:50.407Z,0
2023-02-13T06:12:50.456Z,0
2023-02-13T06:17:50.368Z,0
2023-02-13T06:22:50.416Z,0
2023-02-13T06:27:50.396Z,0
2023-02-13T06:32:50.450Z,0
2023-02-13T06:37:50.395Z,0
2023-02-13T06:42:50.394Z,0
2023-02-13T06:47:50.385Z,0
2023-02-13T06:52:50.412Z,0
2023-02-13T06:57:50.423Z,0
2023-02-13T07:02:50.566Z,1
2023-02-13T07:07:50.390Z,3
2023-02-13T07:13:00.199Z,5
2023-02-13T07:17:50.395Z,7
2023-02-13T07:22:50.350Z,11
2023-02-13T07:27:50.338Z,15
2023-02-13T07:32:50.414Z,10
2023-02-13T07:37:50.351Z,16
2023-02-13T07:42:50.372Z,17
2023-02-13T07:47:50.356Z,14
2023-02-13T07:52:50.389Z,15
2023-02-13T07:57:50.380Z,15
2023-02-13T08:02:50.368Z,18
2023-02-13T08:07:50.344Z,20
2023-02-13T08:12:50.409Z,24
2023-02-13T08:17:50.342Z,26
2023-02-13T08:22:50.368Z,31
2023-02-13T08:27:50.341Z,29
2023-02-13T08:32:54.056Z,27
2023-02-13T08:37:50.335Z,29
2023-02-13T08:42:50.348Z,31
2023-02-13T08:47:50.320Z,36
2023-02-13T08:52:50.375Z,39
2023-02-13T08:57:50.315Z,44
2023-02-13T09:02:50.421Z,45
2023-02-13T09:07:50.302Z,45
2023-02-13T09:12:50.361Z,48
2023-02-13T09:17:50.348Z,55
2023-02-13T09:22:50.330Z,61
2023-02-13T09:27:50.311Z,62
2023-02-13T09:32:50.433Z,61
2023-02-13T09:37:50.321Z,61
2023-02-13T09:42:50.367Z,63
2023-02-13T09:47:50.349Z,66
2023-02-13T09:52:50.347Z,70
2023-02-13T09:57:50.320Z,73
2023-02-13T10:02:50.325Z,72
2023-02-13T10:07:50.309Z,70
2023-02-13T10:12:50.406Z,64
2023-02-13T10:17:50.329Z,66
2023-02-13T10:22:50.341Z,63
2023-02-13T10:27:50.322Z,61
2023-02-13T10:32:50.361Z,59
2023-02-13T10:37:50.288Z,58
2023-02-13T10:42:50.311Z,60
2023-02-13T10:47:50.820Z,65
2023-02-13T10:52:50.821Z,69
2023-02-13T10:57:50.800Z,64
2023-02-13T11:02:50.772Z,63
2023-02-13T11:07:50.770Z,68
2023-02-13T11:12:50.832Z,75
2023-02-13T11:17:50.777Z,97
2023-02-13T11:22:50.802Z,106
2023-02-13T11:27:50.787Z,101
2023-02-13T11:32:50.833Z,78
2023-02-13T11:37:50.768Z,81
2023-02-13T11:42:50.779Z,82
2023-02-13T11:47:50.795Z,97
2023-02-13T11:52:50.798Z,112
2023-02-13T11:57:50.760Z,114
2023-02-13T12:02:50.881Z,113
2023-02-13T12:07:50.804Z,108
2023-02-13T12:12:50.786Z,101
2023-02-13T12:17:50.780Z,101
2023-02-13T12:22:50.799Z,97
2023-02-13T12:27:50.760Z,110
2023-02-13T12:32:51.062Z,125
2023-02-13T12:37:51.021Z,135
2023-02-13T12:42:50.984Z,129
2023-02-13T12:47:51.036Z,131
2023-02-13T12:52:51.038Z,133
2023-02-13T12:57:51.007Z,136
2023-02-13T13:02:51.008Z,133
2023-02-13T13:07:50.999Z,132
2023-02-13T13:12:51.025Z,132
2023-02-13T13:17:51.006Z,134
2023-02-13T13:22:51.004Z,131
2023-02-13T13:27:50.987Z,136
2023-02-13T13:32:51.037Z,142
2023-02-13T13:37:50.996Z,212
2023-02-13T13:42:51.004Z,197
2023-02-13T13:47:50.984Z,193
2023-02-13T13:52:51.038Z,203
2023-02-13T13:57:50.984Z,557
2023-02-13T14:02:51.221Z,596
2023-02-13T14:07:50.969Z,497
2023-02-13T14:12:51.030Z,442
2023-02-13T14:17:51.220Z,434
2023-02-13T14:22:51.216Z,422
2023-02-13T14:27:51.204Z,399
2023-02-13T14:32:51.273Z,362
2023-02-13T14:37:51.203Z,276
2023-02-13T14:42:51.191Z,269
2023-02-13T14:47:51.189Z,196
2023-02-13T14:52:51.299Z,171
2023-02-13T14:57:51.220Z,150
2023-02-13T15:02:51.210Z,130
2023-02-13T15:07:51.214Z,96
2023-02-13T15:12:51.257Z,65
2023-02-13T15:17:51.479Z,54
2023-02-13T15:22:51.461Z,44
2023-02-13T15:27:51.459Z,36
2023-02-13T15:32:51.492Z,33
2023-02-13T15:37:51.430Z,32
2023-02-13T15:42:51.421Z,29
2023-02-13T15:47:51.470Z,29
2023-02-13T15:52:51.469Z,28
2023-02-13T15:57:51.463Z,22
2023-02-13T16:02:51.455Z,14
2023-02-13T16:07:51.436Z,13
2023-02-13T16:12:51.465Z,12
2023-02-13T16:17:51.455Z,11
2023-02-13T16:22:51.475Z,7
2023-02-13T16:27:51.444Z,4
2023-02-13T16:32:51.487Z,4
2023-02-13T16:37:51.455Z,0
2023-02-13T16:42:51.441Z,0
2023-02-13T16:47:51.429Z,0
2023-02-13T16:52:51.449Z,0
2023-02-13T16:57:51.419Z,0
2023-02-13T17:02:51.426Z,0
2023-02-13T17:07:51.442Z,0
2023-02-13T17:12:51.433Z,0
2023-02-13T17:17:51.422Z,0
2023-02-13T17:22:51.452Z,0
2023-02-13T17:27:51.412Z,0
2023-02-13T17:32:51.441Z,0
2023-02-13T17:37:51.678Z,0
2023-02-13T17:42:51.644Z,0
2023-02-13T17:47:51.873Z,0
2023-02-13T17:52:51.929Z,0
2023-02-13T17:57:51.897Z,0
2023-02-13T18:02:51.924Z,0
2023-02-13T18:07:51.866Z,0
2023-02-13T18:12:51.943Z,0
2023-02-13T18:17:51.903Z,0
2023-02-13T18:22:51.863Z,0
2023-02-13T18:27:51.901Z,0
2023-02-13T18:32:52.032Z,0
2023-02-13T18:37:51.892Z,0
2023-02-13T18:42:52.114Z,0
2023-02-13T18:47:52.127Z,0
2023-02-13T18:52:52.408Z,0
2023-02-13T18:57:52.357Z,0
2023-02-13T19:02:52.665Z,0
2023-02-13T19:07:52.608Z,0
2023-02-13T19:12:52.669Z,0
2023-02-13T19:17:52.867Z,0
2023-02-13T19:22:52.866Z,0
2023-02-13T19:27:52.867Z,0
2023-02-13T19:32:53.129Z,0
2023-02-13T19:37:53.108Z,0
2023-02-13T19:42:53.094Z,0
2023-02-13T19:47:53.102Z,0
2023-02-13T19:52:53.391Z,0
2023-02-13T19:57:53.341Z,0
2023-02-13T20:02:53.414Z,0
2023-02-13T20:07:53.349Z,0
2023-02-13T20:12:53.458Z,0
2023-02-13T20:17:53.345Z,0
2023-02-13T20:22:53.345Z,0
2023-02-13T20:27:53.334Z,0
2023-02-13T20:32:53.333Z,0
2023-02-13T20:37:53.325Z,0
2023-02-13T20:42:53.291Z,0
2023-02-13T20:47:53.302Z,0
2023-02-13T20:52:53.328Z,0
2023-02-13T20:57:53.325Z,0
2023-02-13T21:02:53.362Z,0
2023-02-13T21:07:53.908Z,0
2023-02-13T21:12:53.589Z,0
2023-02-13T21:17:53.570Z,0
2023-02-13T21:22:53.519Z,0
2023-02-13T21:27:53.556Z,0
2023-02-13T21:32:53.591Z,0
2023-02-13T21:37:53.540Z,0
2023-02-13T21:42:53.581Z,0
2023-02-13T21:47:53.514Z,0
2023-02-13T21:52:53.550Z,0
2023-02-13T21:57:53.513Z,0
2023-02-13T22:02:53.567Z,0
2023-02-13T22:07:53.516Z,0
2023-02-13T22:12:53.542Z,0
2023-02-13T22:17:53.546Z,0
2023-02-13T22:22:53.532Z,0
2023-02-13T22:27:53.495Z,0
2023-02-13T22:32:53.540Z,0
2023-02-13T22:37:53.503Z,0
2023-02-13T22:42:53.486Z,0
2023-02-13T22:47:53.524Z,0
2023-02-13T22:52:53.606Z,0
2023-02-13T22:57:53.469Z,0
2023-02-13T23:02:53.511Z,0
2023-02-13T23:07:53.495Z,0
2023-02-13T23:12:53.496Z,0
2023-02-13T23:17:53.505Z,0
2023-02-13T23:22:53.498Z,0
2023-02-13T23:27:53.440Z,0
2023-02-13T23:32:53.494Z,0
2023-02-13T23:37:53.491Z,0
2023-02-13T23:42:53.468Z,0
2023-02-13T23:47:53.458Z,0
2023-02-13T23:52:53.473Z,0
2023-02-13T23:57:53.440Z,0
